Zehner, Canada
Current Conditions -  °F | °C
As of 6:00 AM on Thursday 30 Oct 2014 (Local Time) from CYQR Reporting Station
Overcast Overcast  
Wind Chill: 25°   Ceiling: 1300
Heat Index: 32°   Visibility: 15mi
Dew Point: 30°   Wind: 8mph
Humidity: 93%   Direction: 30°NNE
Pressure: 30.32"   Gusts: NA
Location:  50.57°N, 104.46°W
Report Text: CYQR 301200Z 03007KT 15SM OVC013 00/M01 A3032 RMK SC8 SLP295
Loading
Personal Weather Stations






























Interactive Weather Map
Tropical Storm Tracking
New forecast layout! Learn more

10-Day Weather Forecast

Advertisements
Track Severe Weather on mobile